createdAt,value
2017-03-19T00:00:59.930Z,11.23
2017-03-19T00:02:10.264Z,11.21
2017-03-19T00:03:20.604Z,11.18
2017-03-19T00:04:30.973Z,11.27
2017-03-19T00:05:41.293Z,11.16
2017-03-19T00:06:51.648Z,11.23
2017-03-19T00:08:02.039Z,11.15
2017-03-19T00:09:12.374Z,11.16
2017-03-19T00:10:22.434Z,11.12
2017-03-19T00:11:32.469Z,11.21
2017-03-19T00:12:42.823Z,11.1
2017-03-19T00:13:53.170Z,11.16
2017-03-19T00:15:03.513Z,11.15
2017-03-19T00:16:13.548Z,11.21
2017-03-19T00:17:23.881Z,11.2
2017-03-19T00:18:34.235Z,11.13
2017-03-19T00:19:44.578Z,11.24
2017-03-19T00:20:54.928Z,11.21
2017-03-19T00:22:05.266Z,11.18
2017-03-19T00:23:15.615Z,11.18
2017-03-19T00:24:25.971Z,11.21
2017-03-19T00:25:36.316Z,11.2
2017-03-19T00:26:46.651Z,11.13
2017-03-19T00:27:56.994Z,11.24
2017-03-19T00:29:07.078Z,11.16
2017-03-19T00:30:17.432Z,11.23
2017-03-19T00:31:27.771Z,11.24
2017-03-19T00:32:37.186Z,11.16
2017-03-19T00:33:47.539Z,11.23
2017-03-19T00:34:57.890Z,11.26
2017-03-19T00:36:07.930Z,11.28
2017-03-19T00:37:18.303Z,11.23
2017-03-19T00:38:28.022Z,11.18
2017-03-19T00:39:38.366Z,11.27
2017-03-19T00:40:48.743Z,11.3
2017-03-19T00:41:59.086Z,11.27
2017-03-19T00:43:09.146Z,11.31
2017-03-19T00:44:19.504Z,11.39
2017-03-19T00:45:29.877Z,11.38
2017-03-19T00:46:40.219Z,11.41
2017-03-19T00:47:50.570Z,11.34
2017-03-19T00:49:00.905Z,11.41
2017-03-19T00:50:11.240Z,11.34
2017-03-19T00:51:21.614Z,11.43
2017-03-19T00:52:31.950Z,11.35
2017-03-19T00:53:42.304Z,11.42
2017-03-19T00:54:52.324Z,11.41
2017-03-19T00:56:02.651Z,11.43
2017-03-19T00:57:12.672Z,11.38
2017-03-19T00:58:23.022Z,11.39
2017-03-19T00:59:33.356Z,11.43
2017-03-19T01:00:43.699Z,11.43
2017-03-19T01:01:53.758Z,11.35
2017-03-19T01:03:04.106Z,11.38
2017-03-19T01:04:14.150Z,11.42
2017-03-19T01:05:24.485Z,11.3
2017-03-19T01:06:34.834Z,11.42
2017-03-19T01:07:45.178Z,11.39
2017-03-19T01:08:55.204Z,11.43
2017-03-19T01:10:05.565Z,11.41
2017-03-19T01:11:16.148Z,11.35
2017-03-19T01:12:26.178Z,11.31
2017-03-19T01:13:36.529Z,11.26
2017-03-19T01:14:46.567Z,11.31
2017-03-19T01:15:56.596Z,11.34
2017-03-19T01:17:06.932Z,11.35
2017-03-19T01:18:17.278Z,11.38
2017-03-19T01:19:27.659Z,11.27
2017-03-19T01:20:37.679Z,11.18
2017-03-19T01:21:48.017Z,11.23
2017-03-19T01:22:58.052Z,11.26
2017-03-19T01:24:08.408Z,11.18
2017-03-19T01:25:18.744Z,11.27
2017-03-19T01:26:28.464Z,11.24
2017-03-19T01:27:38.493Z,11.08
2017-03-19T01:28:48.843Z,11.28
2017-03-19T01:29:58.866Z,11.2
2017-03-19T01:31:09.213Z,11.16
2017-03-19T01:32:19.548Z,11.23
2017-03-19T01:33:29.905Z,11.18
2017-03-19T01:34:39.918Z,11.16
2017-03-19T01:35:50.326Z,11.18
2017-03-19T01:37:00.661Z,11.21
2017-03-19T01:38:10.702Z,11.1
2017-03-19T01:39:21.042Z,11.09
2017-03-19T01:40:31.081Z,11.12
2017-03-19T01:41:41.443Z,11.08
2017-03-19T01:42:51.796Z,11.05
2017-03-19T01:44:02.146Z,10.94
2017-03-19T01:45:12.170Z,11
2017-03-19T01:46:22.548Z,10.84
2017-03-19T01:47:32.895Z,10.84
2017-03-19T01:48:43.244Z,10.85
2017-03-19T01:49:53.275Z,10.76
2017-03-19T01:51:03.641Z,10.76
2017-03-19T01:52:13.982Z,10.75
2017-03-19T01:53:24.017Z,10.65
2017-03-19T01:54:33.426Z,10.58
2017-03-19T01:55:43.488Z,10.67
2017-03-19T01:56:53.498Z,10.58
2017-03-19T01:58:03.512Z,10.69
2017-03-19T01:59:13.886Z,10.66
2017-03-19T02:00:23.911Z,10.67
2017-03-19T02:01:34.246Z,10.66
2017-03-19T02:02:44.598Z,10.63
2017-03-19T02:03:54.948Z,10.7
2017-03-19T02:05:04.966Z,10.58
2017-03-19T02:06:15.331Z,10.66
2017-03-19T02:07:25.679Z,10.59
2017-03-19T02:08:36.022Z,10.59
2017-03-19T02:09:46.089Z,10.49
2017-03-19T02:10:56.434Z,10.52
2017-03-19T02:12:06.788Z,10.42
2017-03-19T02:13:17.125Z,10.41
2017-03-19T02:14:27.460Z,10.39
2017-03-19T02:15:37.816Z,10.41
2017-03-19T02:16:48.152Z,10.36
2017-03-19T02:17:58.519Z,10.31
2017-03-19T02:19:08.850Z,10.28
2017-03-19T02:20:19.198Z,10.31
2017-03-19T02:21:29.552Z,10.29
2017-03-19T02:22:39.899Z,10.33
2017-03-19T02:23:50.279Z,10.36
2017-03-19T02:25:00.626Z,10.39
2017-03-19T02:26:10.654Z,10.35
2017-03-19T02:27:20.990Z,10.42
2017-03-19T02:28:31.022Z,10.44
2017-03-19T02:29:41.055Z,10.38
2017-03-19T02:30:51.401Z,10.38
2017-03-19T02:32:01.431Z,10.39
2017-03-19T02:33:11.811Z,10.54
2017-03-19T02:34:21.831Z,10.54
2017-03-19T02:35:32.186Z,10.49
2017-03-19T02:36:41.887Z,10.55
2017-03-19T02:37:52.233Z,10.57
2017-03-19T02:39:02.576Z,10.52
2017-03-19T02:40:12.602Z,10.47
2017-03-19T02:41:22.634Z,10.42
2017-03-19T02:42:32.389Z,10.44
2017-03-19T02:43:42.738Z,10.41
2017-03-19T02:44:53.085Z,10.38
2017-03-19T02:46:03.425Z,10.46
2017-03-19T02:47:13.762Z,10.38
2017-03-19T02:48:24.121Z,10.47
2017-03-19T02:49:34.123Z,10.42
2017-03-19T02:50:44.154Z,10.38
2017-03-19T02:51:54.492Z,10.35
2017-03-19T02:53:04.836Z,10.31
2017-03-19T02:54:14.873Z,10.25
2017-03-19T02:55:25.233Z,10.25
2017-03-19T02:56:34.966Z,10.26
2017-03-19T02:57:45.320Z,10.13
2017-03-19T02:58:55.355Z,10.03
2017-03-19T03:00:05.389Z,10.1
2017-03-19T03:01:15.744Z,10.05
2017-03-19T03:32:25.213Z,7.15
2017-03-19T03:33:35.546Z,7.15
2017-03-19T03:34:45.867Z,7.15
2017-03-19T03:35:55.569Z,7.04
2017-03-19T03:37:05.901Z,7.21
2017-03-19T03:38:15.915Z,7.29
2017-03-19T03:39:25.977Z,7.48
2017-03-19T03:40:36.316Z,7.58
2017-03-19T03:41:46.646Z,7.73
2017-03-19T03:42:56.655Z,7.85
2017-03-19T03:44:06.998Z,7.95
2017-03-19T03:45:17.352Z,8.14
2017-03-19T03:46:27.689Z,8.22
2017-03-19T03:47:37.722Z,8.34
2017-03-19T03:48:47.758Z,8.43
2017-03-19T03:49:58.096Z,8.58
2017-03-19T03:51:08.148Z,8.65
2017-03-19T03:52:18.195Z,8.74
2017-03-19T03:53:28.548Z,8.82
2017-03-19T03:54:38.903Z,8.9
2017-03-19T03:55:49.222Z,9.03
2017-03-19T03:56:59.551Z,9.05
2017-03-19T03:58:09.575Z,9.11
2017-03-19T03:59:19.924Z,9.19
2017-03-19T04:00:29.950Z,9.2
2017-03-19T04:01:40.278Z,9.24
2017-03-19T04:02:49.997Z,9.26
2017-03-19T04:04:00.362Z,9.41
2017-03-19T04:05:10.386Z,9.32
2017-03-19T04:06:20.425Z,9.42
2017-03-19T04:07:30.767Z,9.44
2017-03-19T04:08:41.107Z,9.47
2017-03-19T04:09:51.449Z,9.55
2017-03-19T04:11:01.790Z,9.55
2017-03-19T04:12:11.533Z,9.6
2017-03-19T04:13:21.579Z,9.62
2017-03-19T04:14:31.956Z,9.64
2017-03-19T04:15:41.656Z,9.6
2017-03-19T04:16:51.999Z,9.6
2017-03-19T04:18:02.025Z,9.64
2017-03-19T04:19:12.357Z,9.7
2017-03-19T04:20:22.385Z,9.7
2017-03-19T04:21:32.740Z,9.71
2017-03-19T04:22:43.065Z,9.74
2017-03-19T04:23:53.426Z,9.71
2017-03-19T04:25:03.768Z,9.77
2017-03-19T04:26:14.110Z,9.89
2017-03-19T04:27:24.493Z,9.85
2017-03-19T04:28:34.823Z,9.84
2017-03-19T04:29:45.164Z,9.88
2017-03-19T04:30:55.489Z,9.84
2017-03-19T04:32:05.512Z,9.93
2017-03-19T04:33:15.854Z,9.95
2017-03-19T04:34:26.183Z,9.92
2017-03-19T04:35:36.213Z,10.02
2017-03-19T04:36:46.240Z,9.99
2017-03-19T04:37:56.576Z,9.93
2017-03-19T04:39:06.915Z,10.08
2017-03-19T04:40:17.255Z,10.1
2017-03-19T04:41:27.280Z,10.05
2017-03-19T04:42:37.618Z,9.99
2017-03-19T04:43:47.994Z,10.03
2017-03-19T04:44:58.043Z,10.02
2017-03-19T04:46:08.397Z,10.07
2017-03-19T04:47:18.745Z,10.07
2017-03-19T04:48:29.084Z,10.14
2017-03-19T04:49:39.467Z,10.11
2017-03-19T04:50:49.487Z,10.14
2017-03-19T04:51:59.823Z,10.17
2017-03-19T04:53:10.166Z,10.1
2017-03-19T04:54:20.517Z,10.15
2017-03-19T04:55:30.858Z,10.15
2017-03-19T04:56:41.238Z,10.23
2017-03-19T04:57:51.579Z,10.21
2017-03-19T04:59:01.925Z,10.21
2017-03-19T05:00:11.934Z,10.25
2017-03-19T05:01:21.957Z,10.2
2017-03-19T05:02:32.287Z,10.29
2017-03-19T05:03:42.629Z,10.29
2017-03-19T05:04:52.982Z,10.28
2017-03-19T05:06:03.315Z,10.25
2017-03-19T05:07:13.338Z,10.29
2017-03-19T05:08:23.659Z,10.26
2017-03-19T05:09:34.005Z,10.32
2017-03-19T05:10:44.348Z,10.42
2017-03-19T05:11:54.050Z,10.41
2017-03-19T05:13:04.397Z,10.39
2017-03-19T05:14:14.740Z,10.39
2017-03-19T05:15:25.092Z,10.35
2017-03-19T05:16:35.431Z,10.35
2017-03-19T05:17:45.778Z,10.21
2017-03-19T05:18:56.152Z,10.26
2017-03-19T05:20:06.479Z,10.15
2017-03-19T05:21:16.814Z,10.07
2017-03-19T05:22:26.850Z,10.08
2017-03-19T05:23:37.178Z,9.96
2017-03-19T05:24:47.545Z,9.96
2017-03-19T05:25:57.886Z,9.99
2017-03-19T05:27:07.595Z,10.02
2017-03-19T05:28:17.946Z,9.99
2017-03-19T05:29:28.288Z,9.98
2017-03-19T05:30:38.304Z,9.96
2017-03-19T05:31:48.634Z,9.9
2017-03-19T05:32:58.967Z,9.93
2017-03-19T05:34:09.043Z,9.84
2017-03-19T05:35:19.387Z,9.85
2017-03-19T05:36:29.414Z,9.96
2017-03-19T05:37:39.767Z,9.82
2017-03-19T05:38:49.796Z,9.85
2017-03-19T05:40:00.136Z,9.84
2017-03-19T05:41:10.470Z,9.95
2017-03-19T05:42:20.494Z,9.93
2017-03-19T05:43:30.828Z,9.95
2017-03-19T05:44:41.170Z,9.96
2017-03-19T05:45:51.524Z,9.95
2017-03-19T05:47:01.851Z,9.93
2017-03-19T05:48:11.882Z,9.89
2017-03-19T05:49:22.230Z,9.95
2017-03-19T05:50:32.239Z,10.05
2017-03-19T05:51:42.582Z,10.07
2017-03-19T05:52:52.921Z,10.11
2017-03-19T05:54:02.967Z,10.07
2017-03-19T05:55:12.998Z,10.11
2017-03-19T05:56:23.002Z,10.17
2017-03-19T05:57:33.358Z,10.2
2017-03-19T05:58:43.705Z,10.1
2017-03-19T05:59:54.076Z,10.23
2017-03-19T06:01:04.418Z,10.25
2017-03-19T06:02:14.748Z,10.23
2017-03-19T06:03:25.093Z,10.21
2017-03-19T06:04:35.450Z,10.35
2017-03-19T06:05:45.792Z,10.39
2017-03-19T06:06:56.125Z,10.36
2017-03-19T06:08:06.141Z,10.36
2017-03-19T06:09:16.470Z,10.33
2017-03-19T06:10:26.817Z,10.42
2017-03-19T06:11:37.145Z,10.33
2017-03-19T06:12:47.154Z,10.36
2017-03-19T06:13:57.501Z,10.39
2017-03-19T06:15:07.847Z,10.31
2017-03-19T06:16:18.239Z,10.33
2017-03-19T06:17:28.573Z,10.41
2017-03-19T06:18:38.279Z,10.41
2017-03-19T06:19:48.651Z,10.52
2017-03-19T06:20:59.050Z,10.57
2017-03-19T06:22:09.383Z,10.47
2017-03-19T06:23:19.734Z,10.63
2017-03-19T06:24:30.074Z,10.58
2017-03-19T06:25:40.110Z,10.61
2017-03-19T06:26:50.133Z,10.63
2017-03-19T06:28:00.471Z,10.69
2017-03-19T06:29:10.489Z,10.69
2017-03-19T06:30:20.830Z,10.72
2017-03-19T06:31:30.860Z,10.59
2017-03-19T06:32:41.199Z,10.8
2017-03-19T06:33:51.540Z,10.83
2017-03-19T06:35:01.576Z,10.76
2017-03-19T06:36:11.932Z,10.77
2017-03-19T06:37:22.269Z,10.76
2017-03-19T06:38:32.603Z,10.76
2017-03-19T06:39:42.610Z,10.77
2017-03-19T06:40:52.674Z,10.84
2017-03-19T06:42:02.385Z,10.8
2017-03-19T06:43:12.404Z,10.92
2017-03-19T06:44:22.751Z,10.92
2017-03-19T06:45:32.796Z,10.97
2017-03-19T06:46:43.170Z,10.95
2017-03-19T06:47:53.512Z,10.98
2017-03-19T06:49:03.238Z,11.1
2017-03-19T06:50:13.565Z,11.02
2017-03-19T06:51:23.903Z,11.1
2017-03-19T06:52:33.933Z,11.05
2017-03-19T06:53:44.270Z,11.06
2017-03-19T06:54:54.624Z,11.13
2017-03-19T06:56:04.655Z,11.13
2017-03-19T06:57:15.006Z,11.16
2017-03-19T06:58:25.337Z,11.15
2017-03-19T06:59:35.708Z,11.26
2017-03-19T07:00:46.055Z,11.31
2017-03-19T07:01:56.100Z,11.23
2017-03-19T07:03:06.441Z,11.28
2017-03-19T07:04:16.786Z,11.34
2017-03-19T07:05:26.508Z,11.41
2017-03-19T07:06:36.876Z,11.38
2017-03-19T07:07:46.916Z,11.38
2017-03-19T07:08:57.272Z,11.41
2017-03-19T07:10:07.634Z,11.49
2017-03-19T07:11:17.983Z,11.53
2017-03-19T07:12:28.370Z,11.48
2017-03-19T07:13:38.718Z,11.49
2017-03-19T07:14:48.741Z,11.49
2017-03-19T07:15:59.093Z,11.56
2017-03-19T07:17:09.443Z,11.46
2017-03-19T07:18:19.793Z,11.49
2017-03-19T07:19:30.184Z,11.61
2017-03-19T07:20:40.209Z,11.56
2017-03-19T07:21:50.528Z,11.63
2017-03-19T07:23:00.881Z,11.57
2017-03-19T07:24:11.242Z,11.67
2017-03-19T07:25:21.586Z,11.66
2017-03-19T07:26:31.970Z,11.6
2017-03-19T07:27:42.299Z,11.63
2017-03-19T07:28:52.642Z,11.7
2017-03-19T07:30:02.992Z,11.56
2017-03-19T07:31:13.335Z,11.57
2017-03-19T07:32:23.661Z,11.52
2017-03-19T07:39:55.100Z,11.42
2017-03-19T07:41:04.824Z,11.35
2017-03-19T07:42:14.858Z,11.33
2017-03-19T07:43:25.251Z,11.38
2017-03-19T07:44:35.599Z,11.41
2017-03-19T07:45:45.633Z,11.39
2017-03-19T07:46:55.690Z,11.39
2017-03-19T07:48:06.017Z,11.45
2017-03-19T07:49:16.407Z,11.51
2017-03-19T07:50:26.440Z,11.49
2017-03-19T07:51:36.793Z,11.59
2017-03-19T07:52:46.833Z,11.52
2017-03-19T07:53:57.202Z,11.52
2017-03-19T07:55:07.229Z,11.63
2017-03-19T07:56:17.572Z,11.53
2017-03-19T07:57:27.916Z,11.59
2017-03-19T07:58:38.270Z,11.64
2017-03-19T07:59:48.618Z,11.68
2017-03-19T08:00:58.952Z,11.67
2017-03-19T08:02:09.281Z,11.63
2017-03-19T08:03:19.618Z,11.66
2017-03-19T08:04:30.011Z,11.67
2017-03-19T08:05:40.368Z,11.63
2017-03-19T08:06:50.066Z,11.67
2017-03-19T08:08:00.413Z,11.78
2017-03-19T08:09:10.795Z,11.75
2017-03-19T08:10:21.160Z,11.75
2017-03-19T08:11:31.202Z,11.81
2017-03-19T08:12:41.544Z,11.73
2017-03-19T08:13:51.883Z,11.76
2017-03-19T08:15:01.900Z,11.73
2017-03-19T08:16:12.243Z,11.78
2017-03-19T08:17:22.282Z,11.78
2017-03-19T08:18:32.879Z,11.81
2017-03-19T08:19:43.267Z,11.89
2017-03-19T08:20:52.994Z,11.84
2017-03-19T08:22:03.348Z,11.79
2017-03-19T08:23:13.384Z,11.71
2017-03-19T08:24:23.741Z,11.68
2017-03-19T08:25:34.097Z,11.71
2017-03-19T08:26:44.445Z,11.79
2017-03-19T08:27:54.799Z,11.75
2017-03-19T08:29:05.162Z,11.86
2017-03-19T08:30:15.763Z,11.95
2017-03-19T08:31:26.113Z,11.94
2017-03-19T08:32:36.467Z,11.91
2017-03-19T08:33:46.823Z,11.95
2017-03-19T08:34:57.176Z,11.91
2017-03-19T08:36:07.512Z,11.94
2017-03-19T08:37:17.539Z,11.98
2017-03-19T08:38:27.905Z,12.08
2017-03-19T08:39:38.253Z,12.1
2017-03-19T08:40:48.647Z,12.11
2017-03-19T08:41:58.692Z,12.16
2017-03-19T08:43:08.732Z,12.2
2017-03-19T08:44:19.062Z,12.23
2017-03-19T08:45:29.403Z,12.28
2017-03-19T08:46:39.739Z,12.37
2017-03-19T08:47:49.767Z,12.52
2017-03-19T08:48:59.463Z,12.56
2017-03-19T08:50:09.815Z,12.55
2017-03-19T08:51:20.144Z,12.81
2017-03-19T08:52:30.164Z,12.88
2017-03-19T08:53:39.883Z,13.02
2017-03-19T08:54:50.221Z,13.07
2017-03-19T08:56:00.601Z,13.16
2017-03-19T08:57:10.654Z,13.11
2017-03-19T08:58:21.010Z,13.27
2017-03-19T08:59:31.044Z,13.47
2017-03-19T09:00:41.455Z,13.65
2017-03-19T09:01:51.823Z,13.73
2017-03-19T09:03:02.175Z,13.95
2017-03-19T09:04:12.525Z,13.95
2017-03-19T09:05:22.881Z,14.05
2017-03-19T09:06:33.223Z,14.23
2017-03-19T09:07:43.564Z,14.27
2017-03-19T09:08:53.928Z,14.45
2017-03-19T09:10:04.276Z,14.48
2017-03-19T09:11:14.616Z,14.56
2017-03-19T09:12:24.963Z,14.51
2017-03-19T09:13:35.303Z,14.63
2017-03-19T09:14:45.655Z,14.57
2017-03-19T09:15:56.014Z,14.52
2017-03-19T09:17:06.358Z,14.51
2017-03-19T09:18:16.395Z,14.41
2017-03-19T09:19:26.424Z,14.34
2017-03-19T09:20:36.467Z,14.27
2017-03-19T09:21:46.508Z,14.28
2017-03-19T09:22:56.618Z,14.24
2017-03-19T09:24:06.984Z,14.27
2017-03-19T09:25:17.336Z,14.3
2017-03-19T09:26:27.366Z,14.19
2017-03-19T09:27:37.734Z,14.09
2017-03-19T09:28:48.100Z,13.97
2017-03-19T09:29:58.139Z,13.91
2017-03-19T09:31:08.478Z,13.84
2017-03-19T09:32:18.219Z,13.66
2017-03-19T09:33:28.265Z,13.62
2017-03-19T09:34:38.669Z,13.58
2017-03-19T09:35:48.708Z,13.58
2017-03-19T09:36:58.746Z,13.65
2017-03-19T09:38:09.098Z,13.54
2017-03-19T09:39:19.444Z,13.55
2017-03-19T09:40:29.805Z,13.58
2017-03-19T09:41:39.519Z,13.58
2017-03-19T09:42:49.245Z,13.65
2017-03-19T09:43:59.617Z,13.62
2017-03-19T09:45:09.667Z,13.58
2017-03-19T09:46:20.009Z,13.58
2017-03-19T09:47:30.356Z,13.65
2017-03-19T09:48:40.705Z,13.58
2017-03-19T09:49:51.118Z,13.63
2017-03-19T09:51:01.468Z,13.63
2017-03-19T09:52:11.834Z,13.66
2017-03-19T09:53:22.225Z,13.63
2017-03-19T09:54:32.262Z,13.53
2017-03-19T09:55:42.607Z,13.53
2017-03-19T09:56:52.941Z,13.62
2017-03-19T09:58:03.282Z,13.68
2017-03-19T09:59:13.653Z,13.6
2017-03-19T10:00:23.686Z,13.76
2017-03-19T10:01:33.711Z,13.87
2017-03-19T10:02:43.761Z,13.94
2017-03-19T10:03:54.111Z,14.11
2017-03-19T10:05:04.505Z,14.2
2017-03-19T10:06:14.860Z,14.26
2017-03-19T10:07:25.191Z,14.34
2017-03-19T10:08:35.525Z,14.46
2017-03-19T10:09:45.886Z,14.56
2017-03-19T10:10:56.242Z,14.66
2017-03-19T10:12:06.336Z,14.83
2017-03-19T10:13:16.707Z,15.1
2017-03-19T10:14:27.055Z,15.08
2017-03-19T10:15:37.406Z,15.27
2017-03-19T10:16:47.765Z,15.31
2017-03-19T10:17:58.129Z,15.3
2017-03-19T10:19:08.500Z,15.34
2017-03-19T10:20:18.551Z,15.3
2017-03-19T10:21:28.950Z,15.08
2017-03-19T10:22:39.308Z,14.95
2017-03-19T10:23:49.671Z,14.89
2017-03-19T10:24:59.699Z,14.86
2017-03-19T10:26:09.735Z,14.75
2017-03-19T10:27:19.447Z,14.86
2017-03-19T10:28:29.808Z,14.9
2017-03-19T10:29:39.839Z,14.97
2017-03-19T10:30:50.207Z,15.12
2017-03-19T10:32:00.240Z,15.18
2017-03-19T10:33:10.586Z,15.07
2017-03-19T10:34:20.929Z,14.93
2017-03-19T10:35:31.280Z,14.83
2017-03-19T10:36:41.375Z,14.69
2017-03-19T10:37:51.406Z,14.56
2017-03-19T10:39:01.775Z,14.57
2017-03-19T10:40:12.126Z,14.63
2017-03-19T10:41:22.162Z,14.59
2017-03-19T10:42:32.511Z,14.52
2017-03-19T10:43:42.863Z,14.28
2017-03-19T10:44:52.920Z,14.34
2017-03-19T10:46:03.286Z,14.28
2017-03-19T10:47:13.629Z,14.26
2017-03-19T10:48:23.987Z,14.38
2017-03-19T10:49:34.343Z,14.31
2017-03-19T10:50:44.419Z,14.39
2017-03-19T10:51:54.448Z,14.41
2017-03-19T10:53:04.812Z,14.51
2017-03-19T10:54:15.162Z,14.44
2017-03-19T10:55:25.528Z,14.48
2017-03-19T10:56:35.938Z,14.67
2017-03-19T10:57:46.279Z,14.66
2017-03-19T10:58:56.634Z,14.85
2017-03-19T11:00:06.681Z,14.85
2017-03-19T11:01:17.042Z,14.93
2017-03-19T11:02:27.395Z,15.01
2017-03-19T11:03:37.986Z,15
2017-03-19T11:04:48.347Z,15.05
2017-03-19T11:05:58.699Z,15.05
2017-03-19T11:07:09.041Z,15.05
2017-03-19T11:08:19.400Z,15.04
2017-03-19T11:09:29.488Z,15.04
2017-03-19T11:10:39.859Z,15.04
2017-03-19T11:11:49.912Z,15.13
2017-03-19T11:12:59.975Z,15.13
2017-03-19T11:14:10.315Z,15.3
2017-03-19T11:15:20.664Z,15.27
2017-03-19T11:16:31.009Z,15.34
2017-03-19T11:17:41.062Z,15.41
2017-03-19T11:18:51.423Z,15.44
2017-03-19T11:20:01.466Z,15.56
2017-03-19T11:21:11.493Z,15.68
2017-03-19T11:22:21.528Z,15.73
2017-03-19T11:23:31.900Z,15.92
2017-03-19T11:24:41.945Z,15.95
2017-03-19T11:25:51.991Z,16
2017-03-19T11:27:02.334Z,16.11
2017-03-19T11:28:12.696Z,16.25
2017-03-19T11:29:22.729Z,16.47
2017-03-19T11:30:33.097Z,16.36
2017-03-19T11:31:43.449Z,16.44
2017-03-19T11:32:53.827Z,16.52
2017-03-19T11:34:04.434Z,16.58
2017-03-19T11:35:14.797Z,16.67
2017-03-19T11:36:25.176Z,16.76
2017-03-19T11:37:35.248Z,16.57
2017-03-19T11:38:45.601Z,16.54
2017-03-19T11:39:55.644Z,16.45
2017-03-19T11:41:05.977Z,16.42
2017-03-19T11:42:16.332Z,16.44
2017-03-19T11:43:26.684Z,16.48
2017-03-19T11:44:37.034Z,16.62
2017-03-19T11:45:47.393Z,16.63
2017-03-19T11:46:57.780Z,16.63
2017-03-19T11:48:08.139Z,16.73
2017-03-19T11:49:18.523Z,16.76
2017-03-19T11:50:28.894Z,16.67
2017-03-19T11:51:39.260Z,16.67
2017-03-19T11:52:49.617Z,16.58
2017-03-19T11:53:59.663Z,16.39
2017-03-19T11:55:10.044Z,16.34
2017-03-19T11:56:20.073Z,16.21
2017-03-19T11:57:30.128Z,16.06
2017-03-19T11:58:40.155Z,15.91
2017-03-19T11:59:50.210Z,15.83
2017-03-19T12:01:00.249Z,15.8
2017-03-19T12:02:09.974Z,15.8
2017-03-19T12:03:20.022Z,15.84
2017-03-19T12:04:30.412Z,15.84
2017-03-19T12:05:40.764Z,15.99
2017-03-19T12:06:51.104Z,16.02
2017-03-19T12:08:01.481Z,16.27
2017-03-19T12:09:11.517Z,16.34
2017-03-19T12:10:21.862Z,16.32
2017-03-19T12:11:32.204Z,16.34
2017-03-19T12:12:42.561Z,16.25
2017-03-19T12:13:52.928Z,16.04
2017-03-19T12:15:03.286Z,15.93
2017-03-19T12:16:13.069Z,15.84
2017-03-19T12:17:23.115Z,15.84
2017-03-19T12:18:33.489Z,15.88
2017-03-19T12:19:43.841Z,15.77
2017-03-19T12:20:53.891Z,15.81
2017-03-19T12:22:04.005Z,15.63
2017-03-19T12:23:14.062Z,15.44
2017-03-19T12:24:24.429Z,15.41
2017-03-19T12:25:34.790Z,15.33
2017-03-19T12:26:45.388Z,15.34
2017-03-19T12:27:55.747Z,15.43
2017-03-19T12:29:05.794Z,15.59
2017-03-19T12:30:15.845Z,15.74
2017-03-19T12:31:26.199Z,15.84
2017-03-19T12:32:36.619Z,15.92
2017-03-19T12:33:46.996Z,16.18
2017-03-19T12:34:57.382Z,16.33
2017-03-19T12:36:07.738Z,16.44
2017-03-19T12:37:17.805Z,16.55
2017-03-19T12:38:28.176Z,16.63
2017-03-19T12:39:38.566Z,16.72
2017-03-19T12:40:48.600Z,16.77
2017-03-19T12:41:58.953Z,16.92
2017-03-19T12:43:09.337Z,16.84
2017-03-19T12:44:19.691Z,16.94
2017-03-19T12:45:29.726Z,16.94
2017-03-19T12:46:40.051Z,16.95
2017-03-19T12:47:50.416Z,16.99
2017-03-19T12:49:00.469Z,16.97
2017-03-19T12:50:10.841Z,16.95
2017-03-19T12:51:20.877Z,17
2017-03-19T12:52:31.254Z,16.91
2017-03-19T12:53:41.630Z,16.77
2017-03-19T12:54:52.012Z,16.88
2017-03-19T12:56:02.363Z,16.88
2017-03-19T12:57:12.717Z,16.95
2017-03-19T12:58:23.100Z,16.7
2017-03-19T12:59:33.451Z,16.62
2017-03-19T13:00:43.796Z,16.59
2017-03-19T13:01:54.153Z,16.54
2017-03-19T13:03:04.523Z,16.57
2017-03-19T13:04:14.876Z,16.66
2017-03-19T13:05:24.938Z,16.7
2017-03-19T13:06:35.290Z,16.8
2017-03-19T13:07:45.670Z,16.88
2017-03-19T13:08:56.047Z,16.77
2017-03-19T13:10:06.179Z,16.85
2017-03-19T13:11:16.514Z,16.76
2017-03-19T13:12:26.570Z,16.72
2017-03-19T13:13:36.923Z,16.7
2017-03-19T13:14:47.284Z,16.73
2017-03-19T13:15:57.629Z,16.66
2017-03-19T13:17:08.046Z,16.72
2017-03-19T13:18:18.092Z,16.72
2017-03-19T13:19:28.147Z,16.63
2017-03-19T13:20:38.500Z,16.59
2017-03-19T13:21:48.580Z,16.4
2017-03-19T13:22:58.952Z,16.42
2017-03-19T13:24:09.332Z,16.47
2017-03-19T13:25:19.709Z,16.47
2017-03-19T13:26:30.075Z,16.44
2017-03-19T13:27:40.433Z,16.4
2017-03-19T13:28:50.787Z,16.34
2017-03-19T13:30:00.829Z,16.45
2017-03-19T13:31:11.182Z,16.32
2017-03-19T13:32:21.534Z,16.34
2017-03-19T13:33:31.898Z,16.21
2017-03-19T13:34:42.248Z,16.22
2017-03-19T13:35:52.599Z,16.17
2017-03-19T13:37:02.709Z,16.08
2017-03-19T13:38:13.057Z,16.1
2017-03-19T13:39:23.413Z,15.96
2017-03-19T13:40:33.763Z,15.95
2017-03-19T13:41:44.116Z,15.95
2017-03-19T13:42:54.472Z,15.95
2017-03-19T13:44:04.829Z,15.83
2017-03-19T13:45:14.906Z,15.78
2017-03-19T13:46:25.275Z,15.63
2017-03-19T13:47:35.628Z,15.68
2017-03-19T13:48:45.997Z,15.59
2017-03-19T13:49:56.346Z,15.6
2017-03-19T13:51:06.395Z,15.51
2017-03-19T13:52:16.444Z,15.53
2017-03-19T13:53:26.809Z,15.44
2017-03-19T13:54:37.160Z,15.45
2017-03-19T13:55:47.510Z,15.58
2017-03-19T13:56:57.879Z,15.51
2017-03-19T13:58:08.230Z,15.51
2017-03-19T13:59:18.587Z,15.43
2017-03-19T14:00:28.633Z,15.45
2017-03-19T14:01:39.003Z,15.51
2017-03-19T14:02:49.038Z,15.47
2017-03-19T14:03:59.400Z,15.47
2017-03-19T14:05:09.456Z,15.47
2017-03-19T14:06:19.802Z,15.47
2017-03-19T14:07:29.839Z,15.45
2017-03-19T14:08:40.201Z,15.35
2017-03-19T14:09:50.571Z,15.35
2017-03-19T14:11:00.589Z,15.35
2017-03-19T14:12:10.947Z,15.38
2017-03-19T14:13:21.341Z,15.35
2017-03-19T14:14:31.708Z,15.33
2017-03-19T14:15:41.749Z,15.35
2017-03-19T14:16:51.800Z,15.25
2017-03-19T14:18:01.865Z,15.26
2017-03-19T14:19:12.223Z,15.16
2017-03-19T14:20:22.579Z,15.27
2017-03-19T14:21:32.950Z,15.34
2017-03-19T14:22:43.313Z,15.34
2017-03-19T14:23:53.357Z,15.44
2017-03-19T14:25:03.419Z,15.45
2017-03-19T14:26:13.757Z,15.51
2017-03-19T14:27:23.804Z,15.55
2017-03-19T14:28:34.196Z,15.49
2017-03-19T14:29:44.557Z,15.56
2017-03-19T14:30:54.920Z,15.55
2017-03-19T14:32:05.278Z,15.75
2017-03-19T14:33:15.637Z,15.81
2017-03-19T14:34:25.995Z,16.07
2017-03-19T14:35:36.026Z,16.11
2017-03-19T14:36:46.378Z,16.25
2017-03-19T14:37:56.731Z,16.29
2017-03-19T14:39:06.777Z,16.21
2017-03-19T14:40:17.136Z,16.17
2017-03-19T14:41:27.186Z,16.3
2017-03-19T14:42:37.219Z,16.27
2017-03-19T14:43:47.561Z,16.21
2017-03-19T14:44:57.906Z,16.13
2017-03-19T14:46:07.646Z,16.11
2017-03-19T14:47:17.987Z,16.14
2017-03-19T14:48:28.344Z,16.27
2017-03-19T14:49:38.712Z,16.26
2017-03-19T14:50:48.756Z,16.33
2017-03-19T14:51:59.107Z,16.44
2017-03-19T14:53:09.131Z,16.42
2017-03-19T14:54:19.166Z,16.42
2017-03-19T14:55:29.254Z,16.4
2017-03-19T14:56:38.967Z,16.39
2017-03-19T14:57:49.018Z,16.4
2017-03-19T14:58:59.383Z,16.44
2017-03-19T15:00:09.732Z,16.49
2017-03-19T15:01:20.072Z,16.52
2017-03-19T15:02:30.129Z,16.55
2017-03-19T15:03:40.187Z,16.74
2017-03-19T15:04:50.224Z,16.7
2017-03-19T15:06:00.297Z,16.84
2017-03-19T15:07:10.348Z,16.76
2017-03-19T15:08:20.733Z,16.67
2017-03-19T15:09:31.120Z,16.62
2017-03-19T15:10:41.477Z,16.62
2017-03-19T15:11:51.511Z,16.52
2017-03-19T15:13:01.876Z,16.4
2017-03-19T15:14:12.234Z,16.48
2017-03-19T15:15:22.587Z,16.33
2017-03-19T15:16:32.949Z,16.32
2017-03-19T15:17:43.317Z,16.29
2017-03-19T15:18:53.363Z,16.11
2017-03-19T15:20:03.720Z,16.11
2017-03-19T15:21:13.771Z,16.08
2017-03-19T15:22:23.810Z,15.88
2017-03-19T15:23:34.171Z,15.83
2017-03-19T15:24:44.515Z,15.65
2017-03-19T15:25:54.573Z,15.58
2017-03-19T15:27:04.926Z,15.49
2017-03-19T15:28:14.957Z,15.45
2017-03-19T15:29:25.314Z,15.37
2017-03-19T15:30:35.350Z,15.34
2017-03-19T15:31:45.720Z,15.34
2017-03-19T15:32:55.745Z,15.18
2017-03-19T15:34:06.122Z,15.19
2017-03-19T15:35:16.182Z,15.08
2017-03-19T15:36:26.543Z,15.05
2017-03-19T15:37:36.882Z,15.04
2017-03-19T15:38:46.929Z,14.9
2017-03-19T15:39:57.312Z,14.89
2017-03-19T15:41:07.664Z,15.01
2017-03-19T15:42:18.019Z,15.08
2017-03-19T15:43:28.376Z,15.1
2017-03-19T15:44:38.755Z,15.18
2017-03-19T15:45:49.151Z,15.07
2017-03-19T15:46:59.225Z,15.04